Time;durP1;ratioP1;P1;durP2;ratioP2;P2;SDS_P1;SDS_P2;PMS_P1;PMS_P2;Temp;Humidity;BMP_temperature;BMP_pressure;BME280_temperature;BME280_humidity;BME280_pressure;Samples;Min_cycle;Max_cycle;Signal;HPM_P1;HPM_P2
2023/09/19 07:03:16;;;;;;;0.00;0.00;;;17.80;99.90;;;;;;5104504;27;20586;-84
2023/09/19 07:05:42;;;;;;;0.00;0.00;;;17.70;99.90;;;;;;5089260;28;20250;-84
2023/09/19 07:08:12;;;;;;;0.00;0.00;;;17.70;99.90;;;;;;5089605;28;20197;-84
2023/09/19 07:10:40;;;;;;;0.00;0.00;;;17.80;99.90;;;;;;5089719;28;20226;-84
2023/09/19 07:13:10;;;;;;;0.00;0.00;;;17.90;99.90;;;;;;5089245;28;20187;-84
2023/09/19 07:15:39;;;;;;;0.00;0.00;;;18.00;99.90;;;;;;5090234;28;20627;-84
2023/09/19 07:18:05;;;;;;;0.00;0.00;;;18.10;99.90;;;;;;5090302;28;20234;-84
2023/09/19 07:20:32;;;;;;;0.00;0.00;;;18.30;99.90;;;;;;5089432;28;20211;-84
2023/09/19 07:23:01;;;;;;;0.00;0.00;;;18.50;99.90;;;;;;5089972;28;20499;-84
2023/09/19 07:25:30;;;;;;;0.00;0.00;;;18.60;99.90;;;;;;5088999;28;20247;-84
2023/09/19 07:27:59;;;;;;;0.00;0.00;;;18.70;99.90;;;;;;5089224;28;20184;-84
2023/09/19 07:30:26;;;;;;;0.00;0.00;;;18.70;99.90;;;;;;5089385;28;20604;-84
2023/09/19 07:32:52;;;;;;;0.00;0.00;;;18.70;99.90;;;;;;5089163;28;20173;-84
2023/09/19 07:35:19;;;;;;;0.00;0.00;;;18.80;99.90;;;;;;5089002;28;20673;-84
2023/09/19 07:37:49;;;;;;;0.17;0.17;;;18.80;99.90;;;;;;5089183;28;20177;-84
2023/09/19 07:40:15;;;;;;;0.00;0.00;;;19.00;99.90;;;;;;5088883;28;20173;-84
2023/09/19 07:42:41;;;;;;;0.00;0.00;;;19.00;99.90;;;;;;5088612;28;20288;-84
2023/09/19 07:45:14;;;;;;;0.00;0.00;;;19.10;99.90;;;;;;5088898;28;20268;-84
2023/09/19 07:47:47;;;;;;;0.00;0.00;;;19.40;99.90;;;;;;5089824;28;20607;-84
2023/09/19 07:50:18;;;;;;;0.00;0.00;;;19.50;99.90;;;;;;5088852;28;20649;-84
2023/09/19 07:52:44;;;;;;;0.10;0.10;;;19.80;99.90;;;;;;5089437;28;20620;-84
2023/09/19 07:55:17;;;;;;;0.03;0.03;;;20.00;99.90;;;;;;5089448;28;20180;-84
2023/09/19 07:57:46;;;;;;;0.68;0.32;;;20.10;99.90;;;;;;5088608;28;20530;-84
2023/09/19 08:00:13;;;;;;;3.55;2.58;;;20.30;99.90;;;;;;5088269;28;20266;-84
2023/09/19 08:02:40;;;;;;;3.50;3.15;;;20.30;99.90;;;;;;5083595;28;20209;-84
2023/09/19 08:05:07;;;;;;;3.10;2.30;;;20.30;99.90;;;;;;5075124;28;20227;-84
2023/09/19 08:07:33;;;;;;;3.22;2.30;;;20.30;99.90;;;;;;5075486;28;20177;-84
2023/09/19 08:09:59;;;;;;;3.55;2.03;;;20.20;99.90;;;;;;5074546;28;20196;-84
2023/09/19 08:12:25;;;;;;;2.33;2.00;;;20.10;99.90;;;;;;5074948;28;20185;-84
2023/09/19 08:14:51;;;;;;;2.33;1.90;;;20.10;99.90;;;;;;5074602;28;20184;-84
2023/09/19 08:17:16;;;;;;;5.55;2.58;;;20.00;99.90;;;;;;5075311;28;20178;-85
2023/09/19 08:19:44;;;;;;;2.35;1.92;;;19.80;99.90;;;;;;5075282;28;20197;-84
2023/09/19 08:22:10;;;;;;;2.45;1.90;;;19.70;99.90;;;;;;5074827;28;20608;-84
2023/09/19 08:24:37;;;;;;;4.03;1.90;;;19.70;99.90;;;;;;5074700;28;20735;-84
2023/09/19 08:27:05;;;;;;;4.22;1.80;;;19.60;99.90;;;;;;5074892;28;20272;-84
2023/09/19 08:29:32;;;;;;;4.15;1.80;;;19.60;99.90;;;;;;5075191;28;20236;-84
2023/09/19 08:31:58;;;;;;;5.07;2.00;;;19.60;99.90;;;;;;5074718;28;20173;-84
2023/09/19 08:34:25;;;;;;;1.70;1.60;;;19.80;99.90;;;;;;5074717;28;20181;-84
2023/09/19 08:37:00;;;;;;;3.90;1.60;;;19.80;99.90;;;;;;5074946;28;20188;-84
2023/09/19 08:39:26;;;;;;;3.17;1.60;;;19.90;99.90;;;;;;5074697;28;20197;-84
2023/09/19 08:41:59;;;;;;;2.45;1.92;;;19.80;99.90;;;;;;5074223;28;20205;-84
2023/09/19 08:44:25;;;;;;;4.28;2.20;;;19.70;99.90;;;;;;5074145;28;20178;-84
2023/09/19 08:46:55;;;;;;;5.10;1.80;;;19.60;99.90;;;;;;5074822;28;20180;-84
2023/09/19 08:49:44;;;;;;;3.72;2.50;;;19.50;99.90;;;;;;5074250;28;20224;-84
2023/09/19 08:52:36;;;;;;;3.55;2.75;;;19.60;99.90;;;;;;5074120;28;20170;-84
2023/09/19 08:55:09;;;;;;;4.85;2.30;;;19.70;99.90;;;;;;5074528;28;20220;-84
2023/09/19 08:57:41;;;;;;;2.63;2.20;;;19.70;99.90;;;;;;5075456;28;20177;-84
2023/09/19 09:00:12;;;;;;;5.32;1.98;;;19.80;99.90;;;;;;5073852;28;20205;-84
2023/09/19 09:02:43;;;;;;;3.00;1.83;;;19.80;99.90;;;;;;5073942;28;20715;-84
2023/09/19 09:05:14;;;;;;;2.65;1.75;;;19.80;99.90;;;;;;5073802;28;20170;-84
2023/09/19 09:07:40;;;;;;;5.95;1.80;;;19.90;99.90;;;;;;5074607;28;20519;-84
2023/09/19 09:10:07;;;;;;;1.92;1.70;;;19.80;99.90;;;;;;5073848;28;20193;-84
2023/09/19 09:12:36;;;;;;;3.25;1.65;;;20.00;99.90;;;;;;5074455;28;20631;-84
2023/09/19 09:15:03;;;;;;;4.05;1.70;;;20.10;99.90;;;;;;5072823;28;20177;-84
2023/09/19 09:17:30;;;;;;;3.58;1.55;;;20.10;99.90;;;;;;5073867;28;20561;-84
2023/09/19 09:19:56;;;;;;;3.03;1.60;;;20.20;99.90;;;;;;5073629;28;20205;-84
2023/09/19 09:22:21;;;;;;;3.22;1.90;;;20.40;99.90;;;;;;5073326;28;20231;-84
2023/09/19 09:25:04;;;;;;;2.17;1.70;;;20.50;99.90;;;;;;5073829;28;20177;-84
2023/09/19 09:27:32;;;;;;;5.68;1.92;;;20.80;99.90;;;;;;5073663;28;20256;-84
2023/09/19 09:29:58;;;;;;;2.55;1.73;;;20.80;99.90;;;;;;5073321;28;20232;-84
2023/09/19 09:32:29;;;;;;;4.50;1.90;;;20.90;99.90;;;;;;5073514;28;20178;-84
2023/09/19 09:34:56;;;;;;;3.28;1.80;;;20.90;99.90;;;;;;5073115;28;20174;-84
2023/09/19 09:37:24;;;;;;;1.98;1.60;;;20.80;99.90;;;;;;5074574;28;20216;-84
2023/09/19 09:39:58;;;;;;;1.88;1.70;;;20.80;99.90;;;;;;5072948;28;20198;-84
2023/09/19 09:42:35;;;;;;;2.53;1.77;;;20.70;99.90;;;;;;5073665;28;20220;-84
2023/09/19 09:45:15;;;;;;;2.65;1.63;;;20.70;99.90;;;;;;5073136;28;20169;-84
2023/09/19 09:47:57;;;;;;;4.28;1.88;;;20.70;99.90;;;;;;5073611;28;20249;-84
2023/09/19 09:50:39;;;;;;;3.63;1.95;;;20.70;99.90;;;;;;5073723;28;20193;-84
2023/09/19 09:53:25;;;;;;;3.95;1.88;;;20.70;99.40;;;;;;5072847;28;20192;-84
2023/09/19 09:56:09;;;;;;;2.35;2.13;;;20.70;99.70;;;;;;5072999;28;20196;-84
2023/09/19 09:58:55;;;;;;;3.35;2.00;;;20.80;98.50;;;;;;5072804;28;20201;-84
2023/09/19 10:01:26;;;;;;;2.55;1.90;;;20.90;98.30;;;;;;5072972;28;20223;-84
2023/09/19 10:03:57;;;;;;;3.60;1.92;;;20.80;97.40;;;;;;5072538;28;20173;-84
2023/09/19 10:09:11;;;;;;;4.65;2.50;;;21.10;97.20;;;;;;5074118;28;20285;-84
2023/09/19 10:11:45;;;;;;;5.35;2.30;;;21.00;96.70;;;;;;5073111;28;20290;-84
2023/09/19 10:14:13;;;;;;;3.25;2.13;;;20.80;95.80;;;;;;5073629;28;20198;-85
2023/09/19 10:16:49;;;;;;;2.75;1.85;;;20.60;95.20;;;;;;5072295;28;20177;-84
2023/09/19 10:19:28;;;;;;;3.83;2.00;;;20.30;96.30;;;;;;5072756;28;20204;-84
2023/09/19 10:21:56;;;;;;;2.20;1.98;;;20.30;97.20;;;;;;5073400;28;20194;-85
2023/09/19 10:24:23;;;;;;;3.05;2.20;;;20.40;97.20;;;;;;5072766;28;20223;-84
2023/09/19 10:26:50;;;;;;;3.40;2.22;;;20.30;96.60;;;;;;5073036;28;20181;-84
2023/09/19 10:29:18;;;;;;;4.55;2.10;;;20.30;97.00;;;;;;5072423;28;20687;-84
2023/09/19 10:31:47;;;;;;;3.70;2.33;;;20.30;97.50;;;;;;5073096;28;20201;-84
2023/09/19 10:34:14;;;;;;;3.25;2.03;;;20.60;96.40;;;;;;5072250;28;20181;-84
2023/09/19 10:36:45;;;;;;;4.22;2.03;;;20.80;96.20;;;;;;5072487;28;20188;-84
2023/09/19 10:39:13;;;;;;;3.25;1.88;;;21.00;95.60;;;;;;5073062;28;20678;-84
2023/09/19 10:41:39;;;;;;;3.55;2.20;;;21.50;96.50;;;;;;5072381;28;20206;-84
2023/09/19 10:44:06;;;;;;;7.55;2.30;;;21.80;95.30;;;;;;5072459;28;20707;-84
2023/09/19 10:46:34;;;;;;;6.85;2.00;;;22.10;94.90;;;;;;5072475;28;20294;-84
2023/09/19 10:49:02;;;;;;;2.97;2.33;;;22.50;93.80;;;;;;5072120;28;20193;-84
2023/09/19 10:51:40;;;;;;;3.65;2.35;;;22.50;92.40;;;;;;5072345;28;20641;-84
2023/09/19 10:54:13;;;;;;;3.97;2.33;;;22.70;91.10;;;;;;5073690;28;20753;-84
2023/09/19 10:56:46;;;;;;;8.32;2.50;;;22.70;90.60;;;;;;5074103;28;20231;-84
2023/09/19 10:59:20;;;;;;;3.97;2.38;;;22.60;90.20;;;;;;5072766;28;20201;-84
2023/09/19 11:01:53;;;;;;;3.83;2.58;;;22.50;90.50;;;;;;5072279;28;20212;-84
2023/09/19 11:04:36;;;;;;;3.05;2.55;;;22.50;89.80;;;;;;5072059;28;20172;-84
2023/09/19 11:07:11;;;;;;;3.92;2.38;;;22.50;89.50;;;;;;5071897;28;20177;-84
2023/09/19 11:09:46;;;;;;;4.78;2.50;;;22.50;89.90;;;;;;5071793;28;20220;-84
2023/09/19 11:12:35;;;;;;;4.40;2.83;;;22.70;89.50;;;;;;5072367;28;20189;-84
2023/09/19 11:15:07;;;;;;;2.85;2.55;;;22.80;87.20;;;;;;5072034;28;20178;-84
2023/09/19 11:17:37;;;;;;;3.38;2.60;;;22.90;84.50;;;;;;5071781;28;20170;-84
2023/09/19 11:23:17;;;;;;;5.53;2.53;;;23.20;81.40;;;;;;5073407;28;20231;-84
2023/09/19 11:25:51;;;;;;;4.35;2.42;;;23.20;80.80;;;;;;5054774;28;20181;-84
2023/09/19 11:28:18;;;;;;;3.20;2.30;;;23.10;79.80;;;;;;5071994;28;20732;-84
2023/09/19 11:30:45;;;;;;;5.35;2.70;;;23.00;82.70;;;;;;5072533;28;20178;-84
2023/09/19 11:33:33;;;;;;;5.35;2.80;;;23.10;82.00;;;;;;5071837;28;20178;-84
2023/09/19 11:36:01;;;;;;;4.90;2.40;;;23.10;80.50;;;;;;5072555;28;20177;-84
2023/09/19 11:38:49;;;;;;;3.45;2.38;;;23.00;80.30;;;;;;5073970;28;20281;-84
2023/09/19 11:41:21;;;;;;;5.75;2.80;;;23.10;80.60;;;;;;5075418;28;20201;-85
2023/09/19 11:43:54;;;;;;;6.85;2.70;;;23.20;78.80;;;;;;5076146;28;20181;-84
2023/09/19 11:46:23;;;;;;;4.03;2.42;;;23.30;78.50;;;;;;5075242;28;20627;-84
2023/09/19 11:48:50;;;;;;;4.53;2.50;;;23.20;76.40;;;;;;5075867;28;20228;-84
2023/09/19 11:51:26;;;;;;;3.80;2.47;;;23.20;78.80;;;;;;5075101;28;20252;-84
2023/09/19 11:54:02;;;;;;;2.80;2.35;;;22.80;76.10;;;;;;5076258;28;20165;-84
2023/09/19 11:56:28;;;;;;;2.58;2.38;;;22.50;77.10;;;;;;5074947;28;20176;-84
2023/09/19 11:58:55;;;;;;;5.32;2.70;;;22.30;77.60;;;;;;5075499;28;20578;-84
2023/09/19 12:01:28;;;;;;;3.05;2.40;;;22.00;76.20;;;;;;5074948;28;20205;-84
2023/09/19 12:03:57;;;;;;;3.25;2.38;;;21.90;77.40;;;;;;5076089;28;20172;-84
2023/09/19 12:06:29;;;;;;;4.85;2.70;;;21.80;78.40;;;;;;5075193;28;20711;-84
2023/09/19 12:08:57;;;;;;;4.72;2.83;;;21.90;79.90;;;;;;5075442;28;20215;-84
2023/09/19 12:11:24;;;;;;;4.18;2.72;;;21.80;78.00;;;;;;5075634;28;20191;-84
2023/09/19 12:13:51;;;;;;;3.58;2.65;;;21.70;77.80;;;;;;5075046;28;20211;-84
2023/09/19 12:16:21;;;;;;;6.75;2.58;;;21.40;80.00;;;;;;5075589;28;20647;-83
2023/09/19 12:18:51;;;;;;;3.88;2.30;;;21.30;80.60;;;;;;5075022;28;20209;-84
2023/09/19 12:21:32;;;;;;;3.50;2.05;;;21.20;79.90;;;;;;5076846;28;20212;-85
2023/09/19 12:24:13;;;;;;;3.17;2.47;;;21.20;81.40;;;;;;5075731;28;20197;-84
2023/09/19 12:26:45;;;;;;;3.80;2.58;;;21.20;79.10;;;;;;5075485;28;20189;-84
2023/09/19 12:29:13;;;;;;;5.63;2.60;;;21.30;79.00;;;;;;5074598;28;20197;-84
2023/09/19 12:31:51;;;;;;;4.53;2.80;;;21.50;77.70;;;;;;5075982;28;20260;-85
2023/09/19 12:34:22;;;;;;;5.05;2.60;;;21.60;78.40;;;;;;5076383;28;20239;-84
2023/09/19 12:36:48;;;;;;;4.90;3.42;;;21.60;77.80;;;;;;5079213;28;20177;-84
2023/09/19 12:39:29;;;;;;;6.25;2.80;;;21.60;77.10;;;;;;5074712;28;20706;-84
2023/09/19 12:41:56;;;;;;;4.30;2.92;;;21.50;77.30;;;;;;5075087;28;20244;-84
2023/09/19 12:44:24;;;;;;;6.80;3.10;;;21.50;78.50;;;;;;5074126;28;20188;-84
2023/09/19 12:46:51;;;;;;;3.50;2.78;;;21.30;79.20;;;;;;5075107;28;20184;-84
2023/09/19 12:49:18;;;;;;;3.88;2.83;;;21.30;80.50;;;;;;5075316;28;20270;-85
2023/09/19 12:51:49;;;;;;;6.93;3.13;;;21.30;79.50;;;;;;5075428;28;20188;-85
2023/09/19 12:54:19;;;;;;;57.08;25.30;;;21.20;79.30;;;;;;5074171;28;20174;-85
2023/09/19 12:56:47;;;;;;;106.35;40.45;;;21.30;79.80;;;;;;5074062;28;20177;-84
2023/09/19 12:59:13;;;;;;;19.52;8.55;;;21.30;78.70;;;;;;5074046;28;20197;-84
2023/09/19 13:01:46;;;;;;;29.02;13.75;;;21.30;78.90;;;;;;5073671;28;20220;-84
2023/09/19 13:04:19;;;;;;;10.60;5.45;;;21.30;80.60;;;;;;5074118;28;20292;-84
2023/09/19 13:06:50;;;;;;;18.88;9.65;;;21.20;78.50;;;;;;5074298;28;20162;-84
2023/09/19 13:09:16;;;;;;;6.93;3.15;;;21.20;80.20;;;;;;5074087;28;20223;-84
2023/09/19 13:11:44;;;;;;;7.43;3.67;;;21.20;80.00;;;;;;5073621;28;20200;-84
2023/09/19 13:14:39;;;;;;;8.32;4.35;;;21.30;80.90;;;;;;5074362;28;20174;-84
2023/09/19 13:17:16;;;;;;;10.45;4.60;;;21.40;82.00;;;;;;5074392;28;20186;-84
2023/09/19 13:19:45;;;;;;;8.68;3.22;;;21.30;80.80;;;;;;5073463;28;20282;-84
2023/09/19 13:22:39;;;;;;;5.85;4.35;;;21.20;78.10;;;;;;5073624;28;20212;-84
2023/09/19 13:25:15;;;;;;;7.53;3.35;;;21.20;80.10;;;;;;5073614;28;20173;-84
2023/09/19 13:27:53;;;;;;;6.13;2.58;;;21.10;80.50;;;;;;5073463;28;20204;-84
2023/09/19 13:30:20;;;;;;;20.83;9.82;;;20.90;79.10;;;;;;5074060;28;20169;-85
2023/09/19 13:32:47;;;;;;;12.82;6.22;;;20.90;80.90;;;;;;5074194;28;20700;-84
2023/09/19 13:35:15;;;;;;;9.23;5.30;;;20.90;79.50;;;;;;5073339;28;20174;-84
2023/09/19 13:37:42;;;;;;;54.10;25.85;;;21.00;78.80;;;;;;5072970;28;20182;-85
2023/09/19 13:40:12;;;;;;;89.72;39.88;;;21.00;80.00;;;;;;5073040;28;20212;-84
2023/09/19 13:42:39;;;;;;;9.07;4.20;;;20.90;80.00;;;;;;5073440;28;20205;-84
2023/09/19 13:45:07;;;;;;;11.25;5.43;;;20.90;78.50;;;;;;5073780;28;20166;-84
2023/09/19 13:47:33;;;;;;;20.45;9.43;;;20.90;79.40;;;;;;5073179;28;20177;-84
2023/09/19 13:50:03;;;;;;;24.10;12.32;;;20.80;78.40;;;;;;5073146;28;20193;-85
2023/09/19 13:52:30;;;;;;;107.60;50.22;;;20.90;79.10;;;;;;5073065;28;20601;-85
2023/09/19 13:54:56;;;;;;;9.75;3.28;;;20.90;79.50;;;;;;5073546;28;20659;-84
2023/09/19 13:57:23;;;;;;;18.77;9.02;;;20.90;77.60;;;;;;5073879;28;20208;-84
2023/09/19 13:59:48;;;;;;;11.02;5.72;;;20.80;78.90;;;;;;5073098;28;20259;-84
2023/09/19 14:02:14;;;;;;;12.13;5.78;;;20.90;77.70;;;;;;5072156;28;20205;-85
2023/09/19 14:04:40;;;;;;;10.95;5.80;;;20.90;78.00;;;;;;5073248;28;20189;-85
2023/09/19 14:07:07;;;;;;;46.40;21.25;;;20.80;78.60;;;;;;5073294;28;20260;-85
2023/09/19 14:09:33;;;;;;;6.18;3.00;;;20.80;79.50;;;;;;5073375;28;20574;-84
2023/09/19 14:11:59;;;;;;;5.38;3.00;;;20.80;77.00;;;;;;5072610;28;20177;-85
2023/09/19 14:14:25;;;;;;;7.05;3.17;;;20.70;77.00;;;;;;5072806;28;20185;-85
2023/09/19 14:16:54;;;;;;;4.25;2.80;;;20.70;78.90;;;;;;5073484;28;20264;-84
2023/09/19 14:19:20;;;;;;;16.25;5.07;;;20.70;77.40;;;;;;5073027;28;20243;-86
2023/09/19 14:21:46;;;;;;;6.95;2.90;;;20.70;78.10;;;;;;5072635;28;20216;-84
2023/09/19 14:24:17;;;;;;;4.63;2.50;;;20.80;78.30;;;;;;5073539;28;20174;-85
2023/09/19 14:26:43;;;;;;;6.88;2.88;;;20.70;78.70;;;;;;5073298;28;20693;-85
2023/09/19 14:29:09;;;;;;;7.60;2.70;;;20.70;79.10;;;;;;5072693;28;20204;-85
2023/09/19 14:31:37;;;;;;;5.30;2.88;;;20.60;78.70;;;;;;5072717;28;20659;-85
2023/09/19 14:34:04;;;;;;;7.05;2.70;;;20.50;78.30;;;;;;5072726;28;20268;-85
2023/09/19 14:36:29;;;;;;;6.00;2.97;;;20.30;78.40;;;;;;5072715;28;20181;-84
2023/09/19 14:38:56;;;;;;;4.68;2.63;;;20.10;79.00;;;;;;5072398;28;20201;-84
2023/09/19 14:41:25;;;;;;;4.90;2.72;;;20.00;79.70;;;;;;5073115;28;20212;-84
2023/09/19 14:43:51;;;;;;;6.80;2.75;;;19.90;79.70;;;;;;5072875;28;20169;-84
2023/09/19 14:46:18;;;;;;;5.68;2.83;;;19.90;80.10;;;;;;5072421;28;20237;-85
2023/09/19 14:48:46;;;;;;;7.25;2.67;;;19.90;81.00;;;;;;5072426;28;20194;-85
2023/09/19 14:51:13;;;;;;;4.13;2.53;;;19.80;79.90;;;;;;5072887;28;20185;-85
2023/09/19 14:53:41;;;;;;;6.05;2.60;;;19.80;80.70;;;;;;5072304;28;20181;-85
2023/09/19 14:56:10;;;;;;;4.90;2.35;;;19.80;81.80;;;;;;5072263;28;20179;-85
2023/09/19 14:58:38;;;;;;;5.70;2.72;;;19.90;81.80;;;;;;5072008;28;20197;-85
2023/09/19 15:01:12;;;;;;;4.10;2.50;;;19.80;81.20;;;;;;5071702;28;20213;-85
2023/09/19 15:03:39;;;;;;;5.32;2.95;;;19.80;82.10;;;;;;5072712;28;20179;-85
2023/09/19 15:06:08;;;;;;;7.43;2.38;;;19.70;81.50;;;;;;5071738;28;20174;-85
2023/09/19 15:08:36;;;;;;;8.18;2.58;;;19.70;81.80;;;;;;5072481;28;20200;-85
2023/09/19 15:11:05;;;;;;;3.97;2.15;;;19.70;82.30;;;;;;5071905;28;20169;-85
2023/09/19 15:13:31;;;;;;;6.53;2.60;;;19.70;83.00;;;;;;5073941;28;20177;-85
2023/09/19 15:16:04;;;;;;;4.10;2.30;;;19.70;82.50;;;;;;5076060;28;20188;-85
2023/09/19 15:18:30;;;;;;;4.95;2.30;;;19.70;82.50;;;;;;5076044;28;20236;-85
2023/09/19 15:20:57;;;;;;;5.68;2.58;;;19.60;82.30;;;;;;5075516;28;20189;-85
2023/09/19 15:23:22;;;;;;;5.70;2.17;;;19.40;82.80;;;;;;5075359;28;20196;-84
2023/09/19 15:25:49;;;;;;;5.30;2.20;;;19.40;83.50;;;;;;5075970;28;20258;-84
2023/09/19 15:28:14;;;;;;;7.22;3.08;;;19.30;85.40;;;;;;5075897;28;20671;-84
2023/09/19 15:30:40;;;;;;;3.65;2.30;;;19.20;84.60;;;;;;5075562;28;20312;-85
2023/09/19 15:33:06;;;;;;;4.95;2.50;;;19.20;85.00;;;;;;5076507;28;20181;-84
2023/09/19 15:35:32;;;;;;;8.40;2.72;;;19.10;83.80;;;;;;5075568;28;20182;-85
2023/09/19 15:37:59;;;;;;;5.80;2.65;;;19.00;85.00;;;;;;5076053;28;20255;-84
2023/09/19 15:40:27;;;;;;;3.38;2.20;;;19.00;85.60;;;;;;5075412;28;20654;-85
2023/09/19 15:42:54;;;;;;;5.10;2.25;;;19.00;85.50;;;;;;5076082;28;20663;-85
2023/09/19 15:45:19;;;;;;;8.98;2.60;;;19.00;87.10;;;;;;5075634;28;20170;-85
2023/09/19 15:47:45;;;;;;;5.32;2.25;;;18.90;86.90;;;;;;5075606;28;20194;-84
2023/09/19 15:50:13;;;;;;;7.18;2.53;;;18.90;87.90;;;;;;5075379;28;20189;-84
2023/09/19 15:52:39;;;;;;;5.57;2.25;;;18.90;87.70;;;;;;5075035;28;20181;-85
2023/09/19 15:55:09;;;;;;;7.45;2.72;;;18.90;87.60;;;;;;5075612;28;20184;-85
2023/09/19 15:57:39;;;;;;;5.85;2.45;;;18.80;87.90;;;;;;5075390;28;20192;-84
2023/09/19 16:00:10;;;;;;;17.30;2.88;;;18.80;88.60;;;;;;5075306;28;20232;-84
2023/09/19 16:02:36;;;;;;;4.03;2.25;;;18.70;88.60;;;;;;5074845;28;20586;-84
2023/09/19 16:05:04;;;;;;;6.43;2.53;;;18.60;88.20;;;;;;5075371;28;20259;-85
2023/09/19 16:07:31;;;;;;;4.57;2.17;;;18.60;88.40;;;;;;5076113;28;20532;-85
2023/09/19 16:09:57;;;;;;;4.20;1.92;;;18.50;89.10;;;;;;5078005;28;20694;-85
2023/09/19 16:12:22;;;;;;;4.68;2.10;;;18.50;90.00;;;;;;5075619;28;20186;-84
2023/09/19 16:14:49;;;;;;;5.63;2.22;;;18.50;90.00;;;;;;5074976;28;20181;-85
2023/09/19 16:17:15;;;;;;;2.67;1.92;;;18.50;90.10;;;;;;5074712;28;20655;-84
2023/09/19 16:19:40;;;;;;;4.60;2.28;;;18.40;89.50;;;;;;5074917;28;20205;-85
2023/09/19 16:22:06;;;;;;;3.35;2.03;;;18.40;89.70;;;;;;5074824;28;20612;-85
2023/09/19 16:24:31;;;;;;;4.40;2.17;;;18.30;90.40;;;;;;5074337;28;20245;-84
2023/09/19 16:26:57;;;;;;;2.88;2.00;;;18.30;90.20;;;;;;5074866;28;20176;-84
2023/09/19 16:29:24;;;;;;;4.25;2.33;;;18.30;90.30;;;;;;5074748;28;20204;-84
2023/09/19 16:31:50;;;;;;;4.30;2.05;;;18.20;90.60;;;;;;5074579;28;20185;-85
2023/09/19 16:34:15;;;;;;;3.38;2.13;;;18.10;90.90;;;;;;5074747;28;20264;-84
2023/09/19 16:36:41;;;;;;;3.92;2.13;;;18.10;91.00;;;;;;5074369;28;20174;-85
2023/09/19 16:39:07;;;;;;;4.05;2.50;;;18.10;91.10;;;;;;5074343;28;20205;-84
2023/09/19 16:41:34;;;;;;;4.38;2.33;;;17.90;91.20;;;;;;5074540;28;20219;-85
2023/09/19 16:44:00;;;;;;;4.35;2.08;;;17.90;91.40;;;;;;5074192;28;20174;-84
2023/09/19 16:46:26;;;;;;;6.40;2.25;;;17.80;91.60;;;;;;5074279;28;20530;-84
2023/09/19 16:48:52;;;;;;;5.85;2.20;;;17.80;91.90;;;;;;5074674;28;20278;-84
2023/09/19 16:51:18;;;;;;;15.98;2.75;;;17.80;91.80;;;;;;5074805;28;20698;-85
2023/09/19 16:53:49;;;;;;;5.00;1.90;;;17.70;92.20;;;;;;5074362;28;20697;-84
2023/09/19 16:56:16;;;;;;;4.40;2.13;;;17.70;92.20;;;;;;5074783;28;20173;-84
2023/09/19 16:58:45;;;;;;;6.25;2.53;;;17.60;92.30;;;;;;5074233;28;20212;-84
2023/09/19 17:01:13;;;;;;;5.53;2.63;;;17.50;92.60;;;;;;5074601;28;20220;-84
2023/09/19 17:03:43;;;;;;;3.25;1.80;;;17.50;92.80;;;;;;5074089;28;20594;-84
2023/09/19 17:06:11;;;;;;;5.18;1.92;;;17.40;93.60;;;;;;5074767;28;20181;-85
2023/09/19 17:08:38;;;;;;;6.45;2.22;;;17.30;93.70;;;;;;5073977;28;20683;-84
2023/09/19 17:11:12;;;;;;;5.70;2.38;;;17.20;94.10;;;;;;5074060;28;20554;-85
2023/09/19 17:13:42;;;;;;;5.65;2.10;;;17.10;94.30;;;;;;5073744;28;20709;-85
2023/09/19 17:16:10;;;;;;;3.95;2.38;;;17.00;94.60;;;;;;5074532;28;20196;-85
2023/09/19 17:18:36;;;;;;;10.60;3.05;;;16.90;94.90;;;;;;5074194;28;20706;-85
2023/09/19 17:21:03;;;;;;;17.25;2.63;;;16.80;95.00;;;;;;5074074;28;20174;-85
2023/09/19 17:23:30;;;;;;;22.60;2.75;;;16.80;95.60;;;;;;5074098;28;20548;-85
2023/09/19 17:26:09;;;;;;;8.43;2.00;;;16.70;95.60;;;;;;5074219;28;20757;-85
2023/09/19 17:28:36;;;;;;;5.35;2.20;;;16.60;95.70;;;;;;5073297;28;20254;-85
2023/09/19 17:31:03;;;;;;;6.28;1.90;;;16.50;96.40;;;;;;5074303;28;20655;-85
2023/09/19 17:33:29;;;;;;;4.00;2.30;;;16.40;96.50;;;;;;5073592;28;20170;-85
2023/09/19 17:36:10;;;;;;;6.00;2.53;;;16.30;96.80;;;;;;5073169;28;20195;-85
2023/09/19 17:38:37;;;;;;;4.35;2.40;;;16.20;97.10;;;;;;5073379;28;20203;-85
2023/09/19 17:41:03;;;;;;;3.22;2.10;;;16.10;97.30;;;;;;5073091;28;20196;-85
2023/09/19 17:43:31;;;;;;;5.00;2.50;;;16.00;97.60;;;;;;5073074;28;20177;-85
2023/09/19 17:46:04;;;;;;;4.38;2.35;;;16.00;97.70;;;;;;5073403;28;20180;-85
2023/09/19 17:48:31;;;;;;;5.57;2.30;;;15.90;97.80;;;;;;5072935;28;20201;-85
2023/09/19 17:51:03;;;;;;;2.92;2.08;;;15.90;98.00;;;;;;5073184;28;20181;-84
2023/09/19 17:53:29;;;;;;;5.40;2.30;;;15.80;98.30;;;;;;5073811;28;20188;-84
2023/09/19 17:55:54;;;;;;;6.57;2.60;;;15.80;98.80;;;;;;5073005;28;20173;-85
2023/09/19 17:58:20;;;;;;;3.13;2.00;;;15.80;98.50;;;;;;5073455;28;20284;-84
2023/09/19 18:00:46;;;;;;;2.83;2.03;;;15.70;98.70;;;;;;5073293;28;20185;-84
2023/09/19 18:03:15;;;;;;;11.35;2.72;;;15.80;98.70;;;;;;5072772;28;20209;-84
2023/09/19 18:05:53;;;;;;;18.02;2.60;;;15.70;98.60;;;;;;5073725;28;20707;-85
2023/09/19 18:08:25;;;;;;;10.50;1.90;;;15.80;98.70;;;;;;5072440;28;20251;-84
2023/09/19 18:10:52;;;;;;;3.35;1.95;;;15.70;99.00;;;;;;5072270;28;20240;-84
2023/09/19 18:13:20;;;;;;;8.77;2.33;;;15.70;99.00;;;;;;5072621;28;20173;-85
2023/09/19 18:15:58;;;;;;;4.32;2.33;;;15.70;99.10;;;;;;5073280;28;20165;-85
2023/09/19 18:18:30;;;;;;;2.97;1.92;;;15.70;99.10;;;;;;5072453;28;20228;-85
2023/09/19 18:21:01;;;;;;;6.13;2.10;;;15.60;99.30;;;;;;5072092;28;20670;-85
2023/09/19 18:24:13;;;;;;;3.33;2.13;;;15.60;99.40;;;;;;5072782;28;20238;-84
2023/09/19 18:26:43;;;;;;;8.65;2.22;;;15.50;99.60;;;;;;5053916;28;20178;-84
2023/09/19 18:29:15;;;;;;;4.57;2.30;;;15.50;99.60;;;;;;5072827;28;20193;-88
2023/09/19 18:31:45;;;;;;;6.47;2.05;;;15.50;99.80;;;;;;5072565;28;20184;-86
2023/09/19 18:34:15;;;;;;;3.35;1.90;;;15.50;99.90;;;;;;5071995;28;20177;-88
2023/09/19 18:36:41;;;;;;;1.85;1.75;;;15.40;99.90;;;;;;5053664;28;20193;-85
2023/09/19 18:39:09;;;;;;;4.30;1.83;;;15.40;99.90;;;;;;5055431;28;20197;-84
2023/09/19 18:41:38;;;;;;;4.63;2.40;;;15.30;99.90;;;;;;5072480;28;20201;-84
2023/09/19 18:44:08;;;;;;;8.38;2.50;;;15.20;99.90;;;;;;5072930;28;20181;-85
2023/09/19 18:46:40;;;;;;;5.38;1.95;;;15.20;99.90;;;;;;5072647;28;20195;-85
2023/09/19 18:49:10;;;;;;;5.75;2.28;;;15.20;99.90;;;;;;5071806;28;20197;-86
2023/09/19 18:51:36;;;;;;;8.93;2.38;;;15.10;99.90;;;;;;5072809;28;20177;-85
2023/09/19 18:54:16;;;;;;;9.05;2.42;;;15.10;99.90;;;;;;5073224;28;20181;-85
2023/09/19 18:56:46;;;;;;;6.78;2.38;;;15.10;99.90;;;;;;5072581;28;20577;-84
2023/09/19 18:59:13;;;;;;;4.38;2.25;;;15.00;99.90;;;;;;5072388;28;20675;-84
2023/09/19 19:01:43;;;;;;;3.90;2.10;;;14.90;99.90;;;;;;5071036;28;20228;-84
2023/09/19 19:04:12;;;;;;;3.40;2.17;;;14.90;99.90;;;;;;5072206;28;20215;-84
2023/09/19 19:06:38;;;;;;;7.93;2.20;;;14.80;99.90;;;;;;5072346;28;20320;-84
2023/09/19 19:09:09;;;;;;;6.50;2.55;;;14.80;99.90;;;;;;5072132;28;20235;-84
2023/09/19 19:11:36;;;;;;;5.13;2.17;;;14.70;99.90;;;;;;5071915;28;20180;-84
2023/09/19 19:14:05;;;;;;;7.10;2.47;;;14.60;99.90;;;;;;5073435;28;20254;-84
2023/09/19 19:16:35;;;;;;;4.40;2.30;;;14.60;99.90;;;;;;5070734;28;20259;-84
2023/09/19 19:19:01;;;;;;;4.90;2.30;;;14.50;99.90;;;;;;5071307;28;20235;-84
2023/09/19 19:21:31;;;;;;;3.88;2.00;;;14.50;99.90;;;;;;5071894;28;20294;-84
2023/09/19 19:23:57;;;;;;;3.20;2.22;;;14.50;99.90;;;;;;5072743;28;20181;-84
2023/09/19 19:26:26;;;;;;;4.28;2.25;;;14.40;99.90;;;;;;5071927;28;20230;-84
2023/09/19 19:28:52;;;;;;;7.75;3.95;;;14.40;99.90;;;;;;5072041;28;20225;-85
2023/09/19 19:31:17;;;;;;;56.10;40.90;;;14.40;99.90;;;;;;5071613;28;20173;-84
2023/09/19 19:33:43;;;;;;;9.95;4.85;;;14.40;99.90;;;;;;5071656;28;20188;-83
2023/09/19 19:36:11;;;;;;;12.45;5.43;;;14.40;99.90;;;;;;5072056;28;20181;-84
2023/09/19 19:38:37;;;;;;;6.15;4.22;;;14.30;99.90;;;;;;5072283;28;20225;-84
2023/09/19 19:41:06;;;;;;;5.63;2.95;;;14.30;99.90;;;;;;5072691;28;20178;-84
2023/09/19 19:43:33;;;;;;;6.70;2.88;;;14.40;99.90;;;;;;5072256;28;20184;-84
2023/09/19 19:46:00;;;;;;;3.25;2.60;;;14.40;99.90;;;;;;5071706;28;20178;-84
2023/09/19 19:48:27;;;;;;;3.58;2.35;;;14.40;99.90;;;;;;5072654;28;20189;-84
2023/09/19 19:50:57;;;;;;;3.42;2.30;;;14.40;99.90;;;;;;5071644;28;20647;-84
2023/09/19 19:53:26;;;;;;;3.28;2.30;;;14.40;99.90;;;;;;5071705;28;20169;-84
2023/09/19 19:55:52;;;;;;;3.50;2.33;;;14.30;99.90;;;;;;5072768;28;20196;-84
2023/09/19 19:58:30;;;;;;;7.15;2.70;;;14.40;99.90;;;;;;5072648;28;20250;-84
2023/09/19 20:03:48;;;;;;;3.90;2.55;;;14.30;99.90;;;;;;5066576;28;20659;-85
2023/09/19 20:06:17;;;;;;;4.82;2.65;;;14.30;99.90;;;;;;5075790;28;20177;-85
2023/09/19 20:08:43;;;;;;;5.93;2.50;;;14.30;99.90;;;;;;5075123;28;20205;-85